sensor_id;sensor_type;location;lat;lon;timestamp;P1;durP1;ratioP1;P2;durP2;ratioP2
43160;SDS011;40968;52.342;5.528;2022-10-16T00:02:22;5.65;;;2.20;;
43160;SDS011;40968;52.342;5.528;2022-10-16T00:04:49;7.03;;;2.33;;
43160;SDS011;40968;52.342;5.528;2022-10-16T00:07:15;7.35;;;2.13;;
43160;SDS011;40968;52.342;5.528;2022-10-16T00:09:42;6.47;;;2.50;;
43160;SDS011;40968;52.342;5.528;2022-10-16T00:12:08;6.57;;;2.33;;
43160;SDS011;40968;52.342;5.528;2022-10-16T00:14:35;9.30;;;2.35;;
43160;SDS011;40968;52.342;5.528;2022-10-16T00:17:02;8.70;;;2.30;;
43160;SDS011;40968;52.342;5.528;2022-10-16T00:19:30;5.90;;;2.00;;
43160;SDS011;40968;52.342;5.528;2022-10-16T00:21:56;6.68;;;2.20;;
43160;SDS011;40968;52.342;5.528;2022-10-16T00:24:23;8.68;;;2.00;;
43160;SDS011;40968;52.342;5.528;2022-10-16T00:26:49;9.68;;;1.92;;
43160;SDS011;40968;52.342;5.528;2022-10-16T00:29:17;5.70;;;2.20;;
43160;SDS011;40968;52.342;5.528;2022-10-16T00:31:43;9.35;;;2.30;;
43160;SDS011;40968;52.342;5.528;2022-10-16T00:34:10;6.72;;;2.20;;
43160;SDS011;40968;52.342;5.528;2022-10-16T00:36:38;9.52;;;2.22;;
43160;SDS011;40968;52.342;5.528;2022-10-16T00:39:04;5.60;;;1.90;;
43160;SDS011;40968;52.342;5.528;2022-10-16T00:41:31;8.50;;;2.17;;
43160;SDS011;40968;52.342;5.528;2022-10-16T00:43:59;6.70;;;2.15;;
43160;SDS011;40968;52.342;5.528;2022-10-16T00:46:28;6.07;;;2.15;;
43160;SDS011;40968;52.342;5.528;2022-10-16T00:49:04;8.57;;;2.33;;
43160;SDS011;40968;52.342;5.528;2022-10-16T00:51:37;6.60;;;2.13;;
43160;SDS011;40968;52.342;5.528;2022-10-16T00:54:08;8.27;;;2.17;;
43160;SDS011;40968;52.342;5.528;2022-10-16T00:59:06;14.32;;;2.58;;
43160;SDS011;40968;52.342;5.528;2022-10-16T01:01:38;10.30;;;2.40;;
43160;SDS011;40968;52.342;5.528;2022-10-16T01:04:05;6.07;;;1.83;;
43160;SDS011;40968;52.342;5.528;2022-10-16T01:06:33;5.85;;;2.00;;
43160;SDS011;40968;52.342;5.528;2022-10-16T01:09:11;9.27;;;2.17;;
43160;SDS011;40968;52.342;5.528;2022-10-16T01:11:45;6.10;;;2.20;;
43160;SDS011;40968;52.342;5.528;2022-10-16T01:14:21;9.40;;;2.10;;
43160;SDS011;40968;52.342;5.528;2022-10-16T01:16:53;11.52;;;2.45;;
43160;SDS011;40968;52.342;5.528;2022-10-16T01:19:26;8.43;;;2.42;;
43160;SDS011;40968;52.342;5.528;2022-10-16T01:22:07;6.32;;;2.42;;
43160;SDS011;40968;52.342;5.528;2022-10-16T01:24:38;9.48;;;2.70;;
43160;SDS011;40968;52.342;5.528;2022-10-16T01:27:08;5.97;;;2.00;;
43160;SDS011;40968;52.342;5.528;2022-10-16T01:29:37;7.53;;;2.60;;
43160;SDS011;40968;52.342;5.528;2022-10-16T01:32:10;10.90;;;2.42;;
43160;SDS011;40968;52.342;5.528;2022-10-16T01:34:44;6.38;;;2.03;;
43160;SDS011;40968;52.342;5.528;2022-10-16T01:37:18;3.85;;;2.20;;
43160;SDS011;40968;52.342;5.528;2022-10-16T01:39:55;5.88;;;2.00;;
43160;SDS011;40968;52.342;5.528;2022-10-16T01:42:28;7.95;;;2.10;;
43160;SDS011;40968;52.342;5.528;2022-10-16T01:44:59;7.88;;;2.10;;
43160;SDS011;40968;52.342;5.528;2022-10-16T01:47:26;4.75;;;2.08;;
43160;SDS011;40968;52.342;5.528;2022-10-16T01:49:56;8.98;;;2.10;;
43160;SDS011;40968;52.342;5.528;2022-10-16T01:52:25;5.30;;;2.20;;
43160;SDS011;40968;52.342;5.528;2022-10-16T01:54:55;8.17;;;1.83;;
43160;SDS011;40968;52.342;5.528;2022-10-16T01:57:24;5.40;;;2.35;;
43160;SDS011;40968;52.342;5.528;2022-10-16T01:59:54;6.57;;;1.98;;
43160;SDS011;40968;52.342;5.528;2022-10-16T02:02:26;6.45;;;2.47;;
43160;SDS011;40968;52.342;5.528;2022-10-16T02:04:58;10.38;;;1.90;;
43160;SDS011;40968;52.342;5.528;2022-10-16T02:07:30;8.43;;;2.30;;
43160;SDS011;40968;52.342;5.528;2022-10-16T02:09:57;6.65;;;2.30;;
43160;SDS011;40968;52.342;5.528;2022-10-16T02:12:25;4.97;;;2.47;;
43160;SDS011;40968;52.342;5.528;2022-10-16T02:14:55;6.70;;;2.30;;
43160;SDS011;40968;52.342;5.528;2022-10-16T02:17:22;6.95;;;2.55;;
43160;SDS011;40968;52.342;5.528;2022-10-16T02:19:50;13.07;;;3.13;;
43160;SDS011;40968;52.342;5.528;2022-10-16T02:22:21;12.05;;;2.75;;
43160;SDS011;40968;52.342;5.528;2022-10-16T02:24:54;6.05;;;2.65;;
43160;SDS011;40968;52.342;5.528;2022-10-16T02:27:25;7.78;;;2.83;;
43160;SDS011;40968;52.342;5.528;2022-10-16T02:30:01;5.80;;;2.67;;
43160;SDS011;40968;52.342;5.528;2022-10-16T02:32:33;6.38;;;2.83;;
43160;SDS011;40968;52.342;5.528;2022-10-16T02:35:01;10.05;;;3.00;;
43160;SDS011;40968;52.342;5.528;2022-10-16T02:37:28;8.93;;;2.70;;
43160;SDS011;40968;52.342;5.528;2022-10-16T02:39:56;8.82;;;3.25;;
43160;SDS011;40968;52.342;5.528;2022-10-16T02:42:27;12.57;;;3.55;;
43160;SDS011;40968;52.342;5.528;2022-10-16T02:44:55;7.65;;;3.17;;
43160;SDS011;40968;52.342;5.528;2022-10-16T02:47:22;11.85;;;3.08;;
43160;SDS011;40968;52.342;5.528;2022-10-16T02:49:49;9.68;;;3.75;;
43160;SDS011;40968;52.342;5.528;2022-10-16T02:52:16;11.90;;;3.15;;
43160;SDS011;40968;52.342;5.528;2022-10-16T02:54:42;7.88;;;2.95;;
43160;SDS011;40968;52.342;5.528;2022-10-16T02:57:09;9.70;;;3.28;;
43160;SDS011;40968;52.342;5.528;2022-10-16T02:59:35;8.85;;;2.67;;
43160;SDS011;40968;52.342;5.528;2022-10-16T03:02:02;10.18;;;3.10;;
43160;SDS011;40968;52.342;5.528;2022-10-16T03:04:30;6.70;;;2.70;;
43160;SDS011;40968;52.342;5.528;2022-10-16T03:06:57;6.10;;;2.50;;
43160;SDS011;40968;52.342;5.528;2022-10-16T03:09:23;8.43;;;3.20;;
43160;SDS011;40968;52.342;5.528;2022-10-16T03:11:50;9.95;;;2.90;;
43160;SDS011;40968;52.342;5.528;2022-10-16T03:14:17;8.55;;;2.75;;
43160;SDS011;40968;52.342;5.528;2022-10-16T03:16:43;9.18;;;2.75;;
43160;SDS011;40968;52.342;5.528;2022-10-16T03:19:10;7.28;;;2.70;;
43160;SDS011;40968;52.342;5.528;2022-10-16T03:21:38;10.70;;;3.45;;
43160;SDS011;40968;52.342;5.528;2022-10-16T03:24:05;8.15;;;2.55;;
43160;SDS011;40968;52.342;5.528;2022-10-16T03:26:31;6.60;;;2.75;;
43160;SDS011;40968;52.342;5.528;2022-10-16T03:28:58;8.20;;;2.75;;
43160;SDS011;40968;52.342;5.528;2022-10-16T03:31:24;10.82;;;2.90;;
43160;SDS011;40968;52.342;5.528;2022-10-16T03:33:51;5.72;;;2.47;;
43160;SDS011;40968;52.342;5.528;2022-10-16T03:36:17;5.05;;;2.15;;
43160;SDS011;40968;52.342;5.528;2022-10-16T03:38:45;14.38;;;3.05;;
43160;SDS011;40968;52.342;5.528;2022-10-16T03:41:12;9.05;;;3.10;;
43160;SDS011;40968;52.342;5.528;2022-10-16T03:43:39;6.15;;;2.30;;
43160;SDS011;40968;52.342;5.528;2022-10-16T03:46:05;6.78;;;2.65;;
43160;SDS011;40968;52.342;5.528;2022-10-16T03:48:32;4.93;;;2.25;;
43160;SDS011;40968;52.342;5.528;2022-10-16T03:50:59;4.47;;;2.40;;
43160;SDS011;40968;52.342;5.528;2022-10-16T03:53:25;6.45;;;2.47;;
43160;SDS011;40968;52.342;5.528;2022-10-16T03:55:53;7.53;;;2.63;;
43160;SDS011;40968;52.342;5.528;2022-10-16T03:58:20;6.53;;;2.55;;
43160;SDS011;40968;52.342;5.528;2022-10-16T04:00:46;8.25;;;2.60;;
43160;SDS011;40968;52.342;5.528;2022-10-16T04:03:13;7.63;;;2.30;;
43160;SDS011;40968;52.342;5.528;2022-10-16T04:05:40;8.05;;;2.58;;
43160;SDS011;40968;52.342;5.528;2022-10-16T04:08:07;6.57;;;2.67;;
43160;SDS011;40968;52.342;5.528;2022-10-16T04:10:34;4.03;;;2.05;;
43160;SDS011;40968;52.342;5.528;2022-10-16T04:13:02;5.90;;;2.40;;
43160;SDS011;40968;52.342;5.528;2022-10-16T04:15:28;6.93;;;2.65;;
43160;SDS011;40968;52.342;5.528;2022-10-16T04:17:55;7.28;;;2.40;;
43160;SDS011;40968;52.342;5.528;2022-10-16T04:20:21;8.43;;;2.60;;
43160;SDS011;40968;52.342;5.528;2022-10-16T04:22:48;5.15;;;2.40;;
43160;SDS011;40968;52.342;5.528;2022-10-16T04:25:14;8.43;;;2.35;;
43160;SDS011;40968;52.342;5.528;2022-10-16T04:27:41;5.28;;;2.47;;
43160;SDS011;40968;52.342;5.528;2022-10-16T04:30:09;8.13;;;2.25;;
43160;SDS011;40968;52.342;5.528;2022-10-16T04:32:36;6.28;;;2.45;;
43160;SDS011;40968;52.342;5.528;2022-10-16T04:35:03;9.60;;;2.42;;
43160;SDS011;40968;52.342;5.528;2022-10-16T04:37:56;7.97;;;2.08;;
43160;SDS011;40968;52.342;5.528;2022-10-16T04:40:23;6.85;;;2.20;;
43160;SDS011;40968;52.342;5.528;2022-10-16T04:42:50;6.75;;;2.30;;
43160;SDS011;40968;52.342;5.528;2022-10-16T04:45:18;4.22;;;1.90;;
43160;SDS011;40968;52.342;5.528;2022-10-16T04:47:44;5.15;;;2.20;;
43160;SDS011;40968;52.342;5.528;2022-10-16T04:50:11;4.30;;;2.13;;
43160;SDS011;40968;52.342;5.528;2022-10-16T04:52:37;9.27;;;2.30;;
43160;SDS011;40968;52.342;5.528;2022-10-16T04:55:04;13.20;;;2.10;;
43160;SDS011;40968;52.342;5.528;2022-10-16T04:57:32;6.65;;;2.30;;
43160;SDS011;40968;52.342;5.528;2022-10-16T04:59:59;6.45;;;2.20;;
43160;SDS011;40968;52.342;5.528;2022-10-16T05:02:27;4.40;;;2.60;;
43160;SDS011;40968;52.342;5.528;2022-10-16T05:04:53;6.18;;;2.25;;
43160;SDS011;40968;52.342;5.528;2022-10-16T05:07:20;9.27;;;2.13;;
43160;SDS011;40968;52.342;5.528;2022-10-16T05:09:46;4.22;;;1.92;;
43160;SDS011;40968;52.342;5.528;2022-10-16T05:12:13;6.85;;;2.08;;
43160;SDS011;40968;52.342;5.528;2022-10-16T05:14:39;5.47;;;2.10;;
43160;SDS011;40968;52.342;5.528;2022-10-16T05:17:06;9.15;;;2.30;;
43160;SDS011;40968;52.342;5.528;2022-10-16T05:19:34;7.53;;;2.05;;
43160;SDS011;40968;52.342;5.528;2022-10-16T05:22:00;7.03;;;2.00;;
43160;SDS011;40968;52.342;5.528;2022-10-16T05:24:27;6.57;;;1.88;;
43160;SDS011;40968;52.342;5.528;2022-10-16T05:26:54;4.28;;;1.95;;
43160;SDS011;40968;52.342;5.528;2022-10-16T05:29:20;6.68;;;2.22;;
43160;SDS011;40968;52.342;5.528;2022-10-16T05:31:49;4.40;;;2.28;;
43160;SDS011;40968;52.342;5.528;2022-10-16T05:34:16;4.95;;;2.13;;
43160;SDS011;40968;52.342;5.528;2022-10-16T05:36:44;4.38;;;1.90;;
43160;SDS011;40968;52.342;5.528;2022-10-16T05:39:11;3.65;;;1.95;;
43160;SDS011;40968;52.342;5.528;2022-10-16T05:41:37;5.32;;;1.80;;
43160;SDS011;40968;52.342;5.528;2022-10-16T05:44:04;4.30;;;1.83;;
43160;SDS011;40968;52.342;5.528;2022-10-16T05:46:31;5.38;;;2.22;;
43160;SDS011;40968;52.342;5.528;2022-10-16T05:48:58;6.35;;;2.13;;
43160;SDS011;40968;52.342;5.528;2022-10-16T05:51:25;5.35;;;2.30;;
43160;SDS011;40968;52.342;5.528;2022-10-16T05:53:52;5.97;;;2.28;;
43160;SDS011;40968;52.342;5.528;2022-10-16T05:56:19;8.65;;;2.35;;
43160;SDS011;40968;52.342;5.528;2022-10-16T05:58:46;4.00;;;2.00;;
43160;SDS011;40968;52.342;5.528;2022-10-16T06:01:13;14.13;;;2.30;;
43160;SDS011;40968;52.342;5.528;2022-10-16T06:03:41;6.95;;;2.53;;
43160;SDS011;40968;52.342;5.528;2022-10-16T06:06:08;6.22;;;1.98;;
43160;SDS011;40968;52.342;5.528;2022-10-16T06:08:36;6.63;;;2.50;;
43160;SDS011;40968;52.342;5.528;2022-10-16T06:11:06;5.95;;;2.42;;
43160;SDS011;40968;52.342;5.528;2022-10-16T06:13:34;10.05;;;2.83;;
43160;SDS011;40968;52.342;5.528;2022-10-16T06:16:01;4.97;;;2.08;;
43160;SDS011;40968;52.342;5.528;2022-10-16T06:18:28;6.45;;;2.30;;
43160;SDS011;40968;52.342;5.528;2022-10-16T06:20:55;6.20;;;2.35;;
43160;SDS011;40968;52.342;5.528;2022-10-16T06:23:22;5.22;;;2.10;;
43160;SDS011;40968;52.342;5.528;2022-10-16T06:25:49;9.27;;;2.10;;
43160;SDS011;40968;52.342;5.528;2022-10-16T06:28:17;5.10;;;2.10;;
43160;SDS011;40968;52.342;5.528;2022-10-16T06:30:44;9.45;;;2.72;;
43160;SDS011;40968;52.342;5.528;2022-10-16T06:33:11;10.85;;;1.85;;
43160;SDS011;40968;52.342;5.528;2022-10-16T06:35:38;7.55;;;1.92;;
43160;SDS011;40968;52.342;5.528;2022-10-16T06:38:05;6.32;;;1.80;;
43160;SDS011;40968;52.342;5.528;2022-10-16T06:40:31;5.20;;;2.03;;
43160;SDS011;40968;52.342;5.528;2022-10-16T06:42:58;6.55;;;2.15;;
43160;SDS011;40968;52.342;5.528;2022-10-16T06:45:26;7.18;;;2.42;;
43160;SDS011;40968;52.342;5.528;2022-10-16T06:47:52;6.50;;;2.65;;
43160;SDS011;40968;52.342;5.528;2022-10-16T06:50:19;8.27;;;3.33;;
43160;SDS011;40968;52.342;5.528;2022-10-16T06:52:46;10.48;;;3.30;;
43160;SDS011;40968;52.342;5.528;2022-10-16T06:55:13;8.38;;;3.20;;
43160;SDS011;40968;52.342;5.528;2022-10-16T06:57:40;12.88;;;3.50;;
43160;SDS011;40968;52.342;5.528;2022-10-16T07:00:07;10.77;;;3.55;;
43160;SDS011;40968;52.342;5.528;2022-10-16T07:02:36;13.02;;;3.30;;
43160;SDS011;40968;52.342;5.528;2022-10-16T07:05:02;11.18;;;3.83;;
43160;SDS011;40968;52.342;5.528;2022-10-16T07:07:29;7.93;;;2.72;;
43160;SDS011;40968;52.342;5.528;2022-10-16T07:09:56;7.53;;;3.10;;
43160;SDS011;40968;52.342;5.528;2022-10-16T07:12:22;11.38;;;3.00;;
43160;SDS011;40968;52.342;5.528;2022-10-16T07:14:49;9.75;;;3.20;;
43160;SDS011;40968;52.342;5.528;2022-10-16T07:17:17;9.02;;;3.70;;
43160;SDS011;40968;52.342;5.528;2022-10-16T07:19:45;9.27;;;3.05;;
43160;SDS011;40968;52.342;5.528;2022-10-16T07:22:12;8.02;;;2.90;;
43160;SDS011;40968;52.342;5.528;2022-10-16T07:24:38;7.85;;;3.08;;
43160;SDS011;40968;52.342;5.528;2022-10-16T07:27:05;9.40;;;3.65;;
43160;SDS011;40968;52.342;5.528;2022-10-16T07:29:32;13.18;;;2.92;;
43160;SDS011;40968;52.342;5.528;2022-10-16T07:31:58;15.77;;;2.83;;
43160;SDS011;40968;52.342;5.528;2022-10-16T07:34:25;5.25;;;2.50;;
43160;SDS011;40968;52.342;5.528;2022-10-16T07:36:53;8.98;;;2.80;;
43160;SDS011;40968;52.342;5.528;2022-10-16T07:39:20;7.28;;;2.80;;
43160;SDS011;40968;52.342;5.528;2022-10-16T07:41:47;7.43;;;2.45;;
43160;SDS011;40968;52.342;5.528;2022-10-16T07:44:15;6.25;;;2.40;;
43160;SDS011;40968;52.342;5.528;2022-10-16T07:46:41;10.27;;;2.80;;
43160;SDS011;40968;52.342;5.528;2022-10-16T07:49:08;6.47;;;2.85;;
43160;SDS011;40968;52.342;5.528;2022-10-16T07:51:35;6.35;;;2.38;;
43160;SDS011;40968;52.342;5.528;2022-10-16T07:54:04;8.30;;;2.20;;
43160;SDS011;40968;52.342;5.528;2022-10-16T07:56:32;6.85;;;2.33;;
43160;SDS011;40968;52.342;5.528;2022-10-16T07:58:58;10.25;;;2.55;;
43160;SDS011;40968;52.342;5.528;2022-10-16T08:01:25;4.75;;;2.17;;
43160;SDS011;40968;52.342;5.528;2022-10-16T08:03:52;7.55;;;2.60;;
43160;SDS011;40968;52.342;5.528;2022-10-16T08:06:19;6.43;;;2.50;;
43160;SDS011;40968;52.342;5.528;2022-10-16T08:08:47;7.80;;;2.25;;
43160;SDS011;40968;52.342;5.528;2022-10-16T08:11:15;7.38;;;2.67;;
43160;SDS011;40968;52.342;5.528;2022-10-16T08:13:41;5.75;;;2.05;;
43160;SDS011;40968;52.342;5.528;2022-10-16T08:16:08;5.43;;;2.30;;
43160;SDS011;40968;52.342;5.528;2022-10-16T08:18:35;5.53;;;2.00;;
43160;SDS011;40968;52.342;5.528;2022-10-16T08:21:02;5.35;;;2.28;;
43160;SDS011;40968;52.342;5.528;2022-10-16T08:23:29;4.43;;;1.85;;
43160;SDS011;40968;52.342;5.528;2022-10-16T08:25:56;11.98;;;2.60;;
43160;SDS011;40968;52.342;5.528;2022-10-16T08:28:30;8.10;;;2.13;;
43160;SDS011;40968;52.342;5.528;2022-10-16T08:31:04;8.00;;;1.70;;
43160;SDS011;40968;52.342;5.528;2022-10-16T08:33:31;7.03;;;2.30;;
43160;SDS011;40968;52.342;5.528;2022-10-16T08:35:59;6.47;;;2.10;;
43160;SDS011;40968;52.342;5.528;2022-10-16T08:38:26;7.53;;;1.92;;
43160;SDS011;40968;52.342;5.528;2022-10-16T08:40:53;8.05;;;2.53;;
43160;SDS011;40968;52.342;5.528;2022-10-16T08:43:35;11.85;;;3.10;;
43160;SDS011;40968;52.342;5.528;2022-10-16T08:46:15;7.13;;;2.97;;
43160;SDS011;40968;52.342;5.528;2022-10-16T08:48:53;5.70;;;2.90;;
43160;SDS011;40968;52.342;5.528;2022-10-16T08:51:22;15.25;;;2.67;;
43160;SDS011;40968;52.342;5.528;2022-10-16T08:53:52;6.90;;;2.50;;
43160;SDS011;40968;52.342;5.528;2022-10-16T08:56:21;14.60;;;3.30;;
43160;SDS011;40968;52.342;5.528;2022-10-16T08:58:49;14.88;;;4.30;;
43160;SDS011;40968;52.342;5.528;2022-10-16T09:01:17;9.63;;;2.92;;
43160;SDS011;40968;52.342;5.528;2022-10-16T09:03:54;8.40;;;2.57;;
43160;SDS011;40968;52.342;5.528;2022-10-16T09:06:39;14.05;;;3.08;;
43160;SDS011;40968;52.342;5.528;2022-10-16T09:09:16;13.65;;;2.88;;
43160;SDS011;40968;52.342;5.528;2022-10-16T09:11:57;10.23;;;2.75;;
43160;SDS011;40968;52.342;5.528;2022-10-16T09:14:35;8.73;;;2.63;;
43160;SDS011;40968;52.342;5.528;2022-10-16T09:17:14;7.40;;;2.35;;
43160;SDS011;40968;52.342;5.528;2022-10-16T09:19:51;7.20;;;2.53;;
43160;SDS011;40968;52.342;5.528;2022-10-16T09:22:25;8.10;;;2.35;;
43160;SDS011;40968;52.342;5.528;2022-10-16T09:24:54;8.18;;;2.50;;
43160;SDS011;40968;52.342;5.528;2022-10-16T09:27:25;8.40;;;2.50;;
43160;SDS011;40968;52.342;5.528;2022-10-16T09:29:54;9.88;;;2.70;;
43160;SDS011;40968;52.342;5.528;2022-10-16T09:32:21;11.25;;;3.10;;
43160;SDS011;40968;52.342;5.528;2022-10-16T09:34:49;8.65;;;2.83;;
43160;SDS011;40968;52.342;5.528;2022-10-16T09:37:19;8.13;;;2.22;;
43160;SDS011;40968;52.342;5.528;2022-10-16T09:39:48;14.13;;;3.08;;
43160;SDS011;40968;52.342;5.528;2022-10-16T09:42:16;17.05;;;3.70;;
43160;SDS011;40968;52.342;5.528;2022-10-16T09:44:47;7.95;;;2.53;;
43160;SDS011;40968;52.342;5.528;2022-10-16T09:47:16;10.43;;;2.95;;
43160;SDS011;40968;52.342;5.528;2022-10-16T09:52:21;9.45;;;3.45;;
43160;SDS011;40968;52.342;5.528;2022-10-16T09:54:49;23.65;;;3.90;;
43160;SDS011;40968;52.342;5.528;2022-10-16T09:57:17;11.48;;;3.00;;
43160;SDS011;40968;52.342;5.528;2022-10-16T09:59:47;14.95;;;3.28;;
43160;SDS011;40968;52.342;5.528;2022-10-16T10:02:15;11.05;;;3.08;;
43160;SDS011;40968;52.342;5.528;2022-10-16T10:04:47;10.73;;;3.00;;
43160;SDS011;40968;52.342;5.528;2022-10-16T10:07:17;13.15;;;3.75;;
43160;SDS011;40968;52.342;5.528;2022-10-16T10:09:45;18.80;;;3.53;;
43160;SDS011;40968;52.342;5.528;2022-10-16T10:12:19;12.00;;;2.83;;
43160;SDS011;40968;52.342;5.528;2022-10-16T10:14:48;9.70;;;2.72;;
43160;SDS011;40968;52.342;5.528;2022-10-16T10:17:19;10.88;;;2.80;;
43160;SDS011;40968;52.342;5.528;2022-10-16T10:19:47;9.80;;;2.72;;
43160;SDS011;40968;52.342;5.528;2022-10-16T10:22:21;10.30;;;3.05;;
43160;SDS011;40968;52.342;5.528;2022-10-16T10:25:00;12.43;;;2.85;;
43160;SDS011;40968;52.342;5.528;2022-10-16T10:27:39;18.95;;;2.60;;
43160;SDS011;40968;52.342;5.528;2022-10-16T10:30:18;13.10;;;2.97;;
43160;SDS011;40968;52.342;5.528;2022-10-16T10:32:53;10.23;;;2.88;;
43160;SDS011;40968;52.342;5.528;2022-10-16T10:35:30;8.30;;;2.58;;
43160;SDS011;40968;52.342;5.528;2022-10-16T10:38:07;14.07;;;2.78;;
43160;SDS011;40968;52.342;5.528;2022-10-16T10:40:49;14.00;;;2.78;;
43160;SDS011;40968;52.342;5.528;2022-10-16T10:43:25;21.08;;;3.33;;
43160;SDS011;40968;52.342;5.528;2022-10-16T10:46:05;15.93;;;3.28;;
43160;SDS011;40968;52.342;5.528;2022-10-16T10:48:44;15.35;;;2.88;;
43160;SDS011;40968;52.342;5.528;2022-10-16T10:51:19;8.35;;;2.83;;
43160;SDS011;40968;52.342;5.528;2022-10-16T10:53:53;16.67;;;2.90;;
43160;SDS011;40968;52.342;5.528;2022-10-16T10:59:28;12.65;;;2.70;;
43160;SDS011;40968;52.342;5.528;2022-10-16T11:02:14;14.00;;;3.30;;
43160;SDS011;40968;52.342;5.528;2022-10-16T11:05:02;8.23;;;2.65;;
43160;SDS011;40968;52.342;5.528;2022-10-16T11:07:41;10.07;;;2.97;;
43160;SDS011;40968;52.342;5.528;2022-10-16T11:10:15;26.13;;;3.22;;
43160;SDS011;40968;52.342;5.528;2022-10-16T11:12:46;18.52;;;3.20;;
43160;SDS011;40968;52.342;5.528;2022-10-16T11:15:17;20.43;;;3.70;;
43160;SDS011;40968;52.342;5.528;2022-10-16T11:17:48;7.82;;;2.80;;
43160;SDS011;40968;52.342;5.528;2022-10-16T11:20:20;15.20;;;4.07;;
43160;SDS011;40968;52.342;5.528;2022-10-16T11:22:50;8.60;;;2.88;;
43160;SDS011;40968;52.342;5.528;2022-10-16T11:25:21;8.45;;;3.05;;
43160;SDS011;40968;52.342;5.528;2022-10-16T11:27:52;8.00;;;2.78;;
43160;SDS011;40968;52.342;5.528;2022-10-16T11:30:25;10.07;;;3.03;;
43160;SDS011;40968;52.342;5.528;2022-10-16T11:35:48;22.08;;;3.50;;
43160;SDS011;40968;52.342;5.528;2022-10-16T11:38:23;10.77;;;3.30;;
43160;SDS011;40968;52.342;5.528;2022-10-16T11:40:56;16.83;;;2.92;;
43160;SDS011;40968;52.342;5.528;2022-10-16T11:43:27;9.57;;;2.50;;
43160;SDS011;40968;52.342;5.528;2022-10-16T11:45:58;11.23;;;2.83;;
43160;SDS011;40968;52.342;5.528;2022-10-16T11:48:31;18.75;;;3.40;;
43160;SDS011;40968;52.342;5.528;2022-10-16T11:51:07;5.28;;;2.55;;
43160;SDS011;40968;52.342;5.528;2022-10-16T11:53:43;15.75;;;2.75;;
43160;SDS011;40968;52.342;5.528;2022-10-16T11:56:12;13.18;;;3.33;;
43160;SDS011;40968;52.342;5.528;2022-10-16T11:58:44;12.65;;;2.70;;
43160;SDS011;40968;52.342;5.528;2022-10-16T12:01:18;15.48;;;2.78;;
43160;SDS011;40968;52.342;5.528;2022-10-16T12:03:56;9.45;;;2.53;;
43160;SDS011;40968;52.342;5.528;2022-10-16T12:06:33;9.60;;;2.92;;
43160;SDS011;40968;52.342;5.528;2022-10-16T12:09:03;12.25;;;3.33;;
43160;SDS011;40968;52.342;5.528;2022-10-16T12:11:32;11.32;;;2.50;;
43160;SDS011;40968;52.342;5.528;2022-10-16T12:14:05;10.77;;;2.92;;
43160;SDS011;40968;52.342;5.528;2022-10-16T12:16:34;13.93;;;2.75;;
43160;SDS011;40968;52.342;5.528;2022-10-16T12:19:10;8.48;;;2.70;;
43160;SDS011;40968;52.342;5.528;2022-10-16T12:21:39;7.75;;;2.38;;
43160;SDS011;40968;52.342;5.528;2022-10-16T12:24:18;11.43;;;2.28;;
43160;SDS011;40968;52.342;5.528;2022-10-16T12:26:47;16.50;;;2.70;;
43160;SDS011;40968;52.342;5.528;2022-10-16T12:29:21;9.77;;;2.60;;
43160;SDS011;40968;52.342;5.528;2022-10-16T12:31:56;5.93;;;2.25;;
43160;SDS011;40968;52.342;5.528;2022-10-16T12:34:23;13.02;;;2.80;;
43160;SDS011;40968;52.342;5.528;2022-10-16T12:36:56;13.27;;;2.75;;
43160;SDS011;40968;52.342;5.528;2022-10-16T12:39:35;16.17;;;2.70;;
43160;SDS011;40968;52.342;5.528;2022-10-16T12:42:03;8.98;;;2.58;;
43160;SDS011;40968;52.342;5.528;2022-10-16T12:44:32;15.35;;;2.92;;
43160;SDS011;40968;52.342;5.528;2022-10-16T12:47:01;8.90;;;2.25;;
43160;SDS011;40968;52.342;5.528;2022-10-16T12:49:32;13.07;;;2.95;;
43160;SDS011;40968;52.342;5.528;2022-10-16T12:52:04;13.07;;;3.03;;
43160;SDS011;40968;52.342;5.528;2022-10-16T12:54:49;9.15;;;1.98;;
43160;SDS011;40968;52.342;5.528;2022-10-16T12:57:21;21.67;;;2.65;;
43160;SDS011;40968;52.342;5.528;2022-10-16T13:00:03;6.63;;;2.38;;
43160;SDS011;40968;52.342;5.528;2022-10-16T13:02:39;11.13;;;2.40;;
43160;SDS011;40968;52.342;5.528;2022-10-16T13:05:25;8.68;;;2.03;;
43160;SDS011;40968;52.342;5.528;2022-10-16T13:08:05;9.50;;;2.20;;
43160;SDS011;40968;52.342;5.528;2022-10-16T13:10:47;9.63;;;2.50;;
43160;SDS011;40968;52.342;5.528;2022-10-16T13:13:39;12.90;;;2.42;;
43160;SDS011;40968;52.342;5.528;2022-10-16T13:16:28;8.38;;;2.10;;
43160;SDS011;40968;52.342;5.528;2022-10-16T13:19:06;18.20;;;2.33;;
43160;SDS011;40968;52.342;5.528;2022-10-16T13:21:43;8.25;;;2.15;;
43160;SDS011;40968;52.342;5.528;2022-10-16T13:24:22;11.18;;;1.85;;
43160;SDS011;40968;52.342;5.528;2022-10-16T13:27:03;13.15;;;2.35;;
43160;SDS011;40968;52.342;5.528;2022-10-16T13:29:35;8.60;;;2.90;;
43160;SDS011;40968;52.342;5.528;2022-10-16T13:32:07;9.20;;;1.92;;
43160;SDS011;40968;52.342;5.528;2022-10-16T13:34:43;12.45;;;2.45;;
43160;SDS011;40968;52.342;5.528;2022-10-16T13:37:16;7.82;;;1.90;;
43160;SDS011;40968;52.342;5.528;2022-10-16T13:39:45;6.85;;;2.53;;
43160;SDS011;40968;52.342;5.528;2022-10-16T13:42:13;10.02;;;2.00;;
43160;SDS011;40968;52.342;5.528;2022-10-16T13:44:43;15.73;;;2.20;;
43160;SDS011;40968;52.342;5.528;2022-10-16T13:47:15;9.20;;;2.47;;
43160;SDS011;40968;52.342;5.528;2022-10-16T13:49:42;6.97;;;2.25;;
43160;SDS011;40968;52.342;5.528;2022-10-16T13:52:16;14.18;;;2.40;;
43160;SDS011;40968;52.342;5.528;2022-10-16T13:54:46;6.38;;;2.30;;
43160;SDS011;40968;52.342;5.528;2022-10-16T13:57:13;14.65;;;2.65;;
43160;SDS011;40968;52.342;5.528;2022-10-16T13:59:40;10.18;;;2.13;;
43160;SDS011;40968;52.342;5.528;2022-10-16T14:02:10;7.78;;;2.25;;
43160;SDS011;40968;52.342;5.528;2022-10-16T14:04:46;5.57;;;2.17;;
43160;SDS011;40968;52.342;5.528;2022-10-16T14:07:14;10.05;;;2.30;;
43160;SDS011;40968;52.342;5.528;2022-10-16T14:09:48;12.25;;;2.63;;
43160;SDS011;40968;52.342;5.528;2022-10-16T14:12:16;8.45;;;2.60;;
43160;SDS011;40968;52.342;5.528;2022-10-16T14:14:43;9.48;;;2.55;;
43160;SDS011;40968;52.342;5.528;2022-10-16T14:17:15;11.18;;;2.17;;
43160;SDS011;40968;52.342;5.528;2022-10-16T14:19:45;19.75;;;2.42;;
43160;SDS011;40968;52.342;5.528;2022-10-16T14:22:23;10.32;;;2.60;;
43160;SDS011;40968;52.342;5.528;2022-10-16T14:24:56;12.55;;;2.75;;
43160;SDS011;40968;52.342;5.528;2022-10-16T14:27:24;10.60;;;2.30;;
43160;SDS011;40968;52.342;5.528;2022-10-16T14:30:05;10.52;;;2.35;;
43160;SDS011;40968;52.342;5.528;2022-10-16T14:32:39;10.75;;;2.90;;
43160;SDS011;40968;52.342;5.528;2022-10-16T14:35:11;7.70;;;1.92;;
43160;SDS011;40968;52.342;5.528;2022-10-16T14:37:51;14.30;;;2.10;;
43160;SDS011;40968;52.342;5.528;2022-10-16T14:40:20;11.75;;;2.17;;
43160;SDS011;40968;52.342;5.528;2022-10-16T14:42:49;12.75;;;2.10;;
43160;SDS011;40968;52.342;5.528;2022-10-16T14:45:18;9.90;;;2.65;;
43160;SDS011;40968;52.342;5.528;2022-10-16T14:47:50;17.27;;;2.03;;
43160;SDS011;40968;52.342;5.528;2022-10-16T14:50:19;9.10;;;2.00;;
43160;SDS011;40968;52.342;5.528;2022-10-16T14:52:46;6.90;;;1.85;;
43160;SDS011;40968;52.342;5.528;2022-10-16T14:55:14;6.05;;;1.95;;
43160;SDS011;40968;52.342;5.528;2022-10-16T14:57:42;4.85;;;2.13;;
43160;SDS011;40968;52.342;5.528;2022-10-16T15:00:13;10.10;;;2.40;;
43160;SDS011;40968;52.342;5.528;2022-10-16T15:02:43;10.98;;;2.60;;
43160;SDS011;40968;52.342;5.528;2022-10-16T15:05:11;11.10;;;2.25;;
43160;SDS011;40968;52.342;5.528;2022-10-16T15:07:40;7.60;;;2.38;;
43160;SDS011;40968;52.342;5.528;2022-10-16T15:10:07;12.13;;;2.58;;
43160;SDS011;40968;52.342;5.528;2022-10-16T15:12:34;11.45;;;2.13;;